createdAt,value
2018-06-23T00:02:28.401Z,13.95
2018-06-23T00:04:57.948Z,13.96
2018-06-23T00:07:26.969Z,13.86
2018-06-23T00:09:55.514Z,13.87
2018-06-23T00:12:26.299Z,13.77
2018-06-23T00:14:54.846Z,13.62
2018-06-23T00:17:23.389Z,13.48
2018-06-23T00:19:52.023Z,13.59
2018-06-23T00:22:20.504Z,13.67
2018-06-23T00:24:49.105Z,13.70
2018-06-23T00:27:17.827Z,13.66
2018-06-23T00:29:47.033Z,13.75
2018-06-23T00:32:15.777Z,13.78
2018-06-23T00:34:44.331Z,13.70
2018-06-23T00:37:13.094Z,13.74
2018-06-23T00:39:41.609Z,13.73
2018-06-23T00:42:10.140Z,13.66
2018-06-23T00:44:38.669Z,13.76
2018-06-23T00:47:07.357Z,13.69
2018-06-23T00:49:35.983Z,13.68
2018-06-23T00:52:05.344Z,13.55
2018-06-23T00:54:33.827Z,13.56
2018-06-23T00:57:02.408Z,13.57
2018-06-23T00:59:38.825Z,13.48
2018-06-23T01:02:07.614Z,13.55
2018-06-23T01:04:36.497Z,13.58
2018-06-23T01:07:05.364Z,13.54
2018-06-23T01:09:33.831Z,13.49
2018-06-23T01:12:02.522Z,13.44
2018-06-23T01:14:30.965Z,13.41
2018-06-23T01:16:59.633Z,13.32
2018-06-23T01:19:28.026Z,13.21
2018-06-23T01:21:56.908Z,13.15
2018-06-23T01:24:25.369Z,13.17
2018-06-23T01:26:54.017Z,13.23
2018-06-23T01:29:22.479Z,13.20
2018-06-23T01:31:51.058Z,13.16
2018-06-23T01:34:19.540Z,13.13
2018-06-23T01:36:48.027Z,13.10
2018-06-23T01:39:16.918Z,13.17
2018-06-23T01:41:45.391Z,13.17
2018-06-23T01:44:13.875Z,13.19
2018-06-23T01:46:42.369Z,13.11
2018-06-23T01:49:10.810Z,13.06
2018-06-23T01:51:39.470Z,13.07
2018-06-23T01:54:07.997Z,12.93
2018-06-23T01:56:37.118Z,12.82
2018-06-23T01:59:05.857Z,12.66
2018-06-23T02:01:34.327Z,12.71
2018-06-23T02:04:02.727Z,12.67
2018-06-23T02:06:31.237Z,12.62
2018-06-23T02:09:00.061Z,12.61
2018-06-23T02:11:28.512Z,12.56
2018-06-23T02:14:02.910Z,12.66
2018-06-23T02:16:36.640Z,12.57
2018-06-23T02:19:10.180Z,12.51
2018-06-23T02:21:43.812Z,12.58
2018-06-23T02:24:17.774Z,12.66
2018-06-23T02:26:52.001Z,12.57
2018-06-23T02:29:25.826Z,12.58
2018-06-23T02:32:00.299Z,12.44
2018-06-23T02:34:33.911Z,12.55
2018-06-23T02:37:02.383Z,12.46
2018-06-23T02:39:31.260Z,12.21
2018-06-23T02:41:59.734Z,12.02
2018-06-23T02:44:28.198Z,12.06
2018-06-23T02:46:57.239Z,12.14
2018-06-23T02:49:27.168Z,12.28
2018-06-23T02:51:55.736Z,12.08
2018-06-23T02:54:24.184Z,11.98
2018-06-23T02:56:52.834Z,12.13
2018-06-23T02:59:21.374Z,12.20
2018-06-23T03:01:50.580Z,12.05
2018-06-23T03:04:19.606Z,12.26
2018-06-23T03:06:48.461Z,12.40
2018-06-23T03:09:17.085Z,12.38
2018-06-23T03:11:45.644Z,12.49
2018-06-23T03:14:14.207Z,12.43
2018-06-23T03:16:42.808Z,12.41
2018-06-23T03:19:11.374Z,12.45
2018-06-23T03:21:39.980Z,12.38
2018-06-23T03:24:08.493Z,12.44
2018-06-23T03:26:37.017Z,12.47
2018-06-23T03:29:05.927Z,12.48
2018-06-23T03:31:34.408Z,12.47
2018-06-23T03:34:03.701Z,12.39
2018-06-23T03:36:32.188Z,12.36
2018-06-23T03:39:00.686Z,12.37
2018-06-23T03:41:29.506Z,12.38
2018-06-23T03:43:57.939Z,12.43
2018-06-23T03:46:26.415Z,12.43
2018-06-23T03:48:54.900Z,12.44
2018-06-23T03:51:23.458Z,12.38
2018-06-23T03:53:52.203Z,12.34
2018-06-23T03:56:20.625Z,12.37
2018-06-23T03:58:49.266Z,12.39
2018-06-23T04:01:17.743Z,12.42
2018-06-23T04:03:48.511Z,12.45
2018-06-23T04:06:17.014Z,12.47
2018-06-23T04:08:45.487Z,12.32
2018-06-23T04:11:13.994Z,12.36
2018-06-23T04:13:49.771Z,12.36
2018-06-23T04:16:18.263Z,12.35
2018-06-23T04:18:51.394Z,12.35
2018-06-23T04:21:19.938Z,12.24
2018-06-23T04:23:48.843Z,12.21
2018-06-23T04:26:17.881Z,12.21
2018-06-23T04:28:46.565Z,12.31
2018-06-23T04:31:15.199Z,12.39
2018-06-23T04:33:48.412Z,12.48
2018-06-23T04:36:16.961Z,12.45
2018-06-23T04:38:45.478Z,12.34
2018-06-23T04:41:15.104Z,12.51
2018-06-23T04:43:43.578Z,12.57
2018-06-23T04:46:13.122Z,12.54
2018-06-23T04:48:41.584Z,12.59
2018-06-23T04:51:10.213Z,12.59
2018-06-23T04:53:43.388Z,12.58
2018-06-23T04:56:11.904Z,12.60
2018-06-23T04:58:40.640Z,12.68
2018-06-23T05:01:09.202Z,12.64
2018-06-23T05:03:37.748Z,12.66
2018-06-23T05:06:06.929Z,12.67
2018-06-23T05:08:36.299Z,12.73
2018-06-23T05:11:04.811Z,12.70
2018-06-23T05:13:33.302Z,12.71
2018-06-23T05:16:02.065Z,12.78
2018-06-23T05:18:31.588Z,12.82
2018-06-23T05:21:00.182Z,12.59
2018-06-23T05:23:28.759Z,12.46
2018-06-23T05:25:58.885Z,12.48
2018-06-23T05:28:27.368Z,12.46
2018-06-23T05:30:56.112Z,12.64
2018-06-23T05:33:24.601Z,12.80
2018-06-23T05:35:53.611Z,12.70
2018-06-23T05:38:22.170Z,12.93
2018-06-23T05:40:51.573Z,13.16
2018-06-23T05:43:20.972Z,13.09
2018-06-23T05:45:49.540Z,13.04
2018-06-23T05:48:18.122Z,13.14
2018-06-23T05:50:46.664Z,13.49
2018-06-23T05:53:15.178Z,13.71
2018-06-23T05:55:43.714Z,13.51
2018-06-23T05:58:12.687Z,13.72
2018-06-23T06:00:41.144Z,13.95
2018-06-23T06:03:10.404Z,13.56
2018-06-23T06:05:38.969Z,13.87
2018-06-23T06:08:08.160Z,14.06
2018-06-23T06:10:36.725Z,14.20
2018-06-23T06:13:05.324Z,14.08
2018-06-23T06:15:33.998Z,14.08
2018-06-23T06:18:02.466Z,13.89
2018-06-23T06:20:31.423Z,14.18
2018-06-23T06:23:00.881Z,14.05
2018-06-23T06:25:29.407Z,14.24
2018-06-23T06:27:57.977Z,14.67
2018-06-23T06:30:26.573Z,14.79
2018-06-23T06:32:55.026Z,14.84
2018-06-23T06:35:23.503Z,15.01
2018-06-23T06:37:52.141Z,15.07
2018-06-23T06:40:20.642Z,15.05
2018-06-23T06:42:49.351Z,15.16
2018-06-23T06:45:18.558Z,14.53
2018-06-23T06:47:47.138Z,14.96
2018-06-23T06:50:16.087Z,14.77
2018-06-23T06:52:44.519Z,14.82
2018-06-23T06:55:13.744Z,15.22
2018-06-23T06:57:42.342Z,15.47
2018-06-23T07:00:11.092Z,15.61
2018-06-23T07:02:40.034Z,15.76
2018-06-23T07:05:09.211Z,15.82
2018-06-23T07:07:37.722Z,16.01
2018-06-23T07:10:06.426Z,16.27
2018-06-23T07:12:34.939Z,16.22
2018-06-23T07:15:04.632Z,16.16
2018-06-23T07:17:33.576Z,16.50
2018-06-23T07:20:02.693Z,16.80
2018-06-23T07:22:31.196Z,17.02
2018-06-23T07:24:59.765Z,17.32
2018-06-23T07:27:28.294Z,17.45
2018-06-23T07:29:57.120Z,17.37
2018-06-23T07:32:25.632Z,17.42
2018-06-23T07:34:54.886Z,17.46
2018-06-23T07:37:23.312Z,17.58
2018-06-23T07:39:51.864Z,17.69
2018-06-23T07:42:20.964Z,17.69
2018-06-23T07:44:49.561Z,17.91
2018-06-23T07:47:18.148Z,17.90
2018-06-23T07:49:47.533Z,18.11
2018-06-23T07:52:16.024Z,17.94
2018-06-23T07:54:45.555Z,18.05
2018-06-23T07:57:14.190Z,18.35
2018-06-23T07:59:42.728Z,18.60
2018-06-23T08:02:11.426Z,18.57
2018-06-23T08:04:40.046Z,18.38
2018-06-23T08:07:10.260Z,18.76
2018-06-23T08:09:38.781Z,18.48
2018-06-23T08:12:07.334Z,18.69
2018-06-23T08:14:36.847Z,19.01
2018-06-23T08:17:05.567Z,19.23
2018-06-23T08:19:34.242Z,19.35
2018-06-23T08:22:03.580Z,19.28
2018-06-23T08:24:32.121Z,19.08
2018-06-23T08:27:00.673Z,19.17
2018-06-23T08:29:29.874Z,19.40
2018-06-23T08:31:58.894Z,18.89
2018-06-23T08:34:27.468Z,18.95
2018-06-23T08:36:55.993Z,19.26
2018-06-23T08:39:24.490Z,19.61
2018-06-23T08:41:53.061Z,19.48
2018-06-23T08:44:21.654Z,19.27
2018-06-23T08:46:50.263Z,19.21
2018-06-23T08:49:18.805Z,19.64
2018-06-23T08:51:47.351Z,19.50
2018-06-23T08:54:16.715Z,19.89
2018-06-23T08:56:45.459Z,20.03
2018-06-23T08:59:15.049Z,20.04
2018-06-23T09:01:43.818Z,19.73
2018-06-23T09:04:12.782Z,19.72
2018-06-23T09:06:45.555Z,19.67
2018-06-23T09:09:14.137Z,19.47
2018-06-23T09:11:43.429Z,19.49
2018-06-23T09:14:12.622Z,18.83
2018-06-23T09:16:41.209Z,18.89
2018-06-23T09:19:10.226Z,18.94
2018-06-23T09:21:38.868Z,19.41
2018-06-23T09:24:07.561Z,19.71
2018-06-23T09:26:36.155Z,20.03
2018-06-23T09:29:04.993Z,19.97
2018-06-23T09:31:33.570Z,19.74
2018-06-23T09:34:02.633Z,19.68
2018-06-23T09:36:31.697Z,19.36
2018-06-23T09:39:00.179Z,19.29
2018-06-23T09:41:28.728Z,19.16
2018-06-23T09:43:57.352Z,19.19
2018-06-23T09:46:26.606Z,19.73
2018-06-23T09:48:57.676Z,20.15
2018-06-23T09:51:27.298Z,20.22
2018-06-23T09:53:55.928Z,20.19
2018-06-23T09:56:25.087Z,20.32
2018-06-23T09:58:53.653Z,19.93
2018-06-23T10:01:22.253Z,20.16
2018-06-23T10:03:50.812Z,20.08
2018-06-23T10:06:19.353Z,20.04
2018-06-23T10:08:47.958Z,20.11
2018-06-23T10:11:16.515Z,19.73
2018-06-23T10:13:45.177Z,19.65
2018-06-23T10:16:13.790Z,19.59
2018-06-23T10:18:42.659Z,19.80
2018-06-23T10:21:11.200Z,19.55
2018-06-23T10:23:40.597Z,19.63
2018-06-23T10:26:09.739Z,20.08
2018-06-23T10:28:38.656Z,19.74
2018-06-23T10:31:08.080Z,19.91
2018-06-23T10:33:36.583Z,19.53
2018-06-23T10:36:06.054Z,19.70
2018-06-23T10:38:34.887Z,19.65
2018-06-23T10:41:03.960Z,19.91
2018-06-23T10:43:34.618Z,19.83
2018-06-23T10:46:03.146Z,20.25
2018-06-23T10:48:34.842Z,20.75
2018-06-23T10:51:03.765Z,20.52
2018-06-23T10:53:33.577Z,20.23
2018-06-23T10:56:02.649Z,20.31
2018-06-23T10:58:32.337Z,21.14
2018-06-23T11:01:00.856Z,21.56
2018-06-23T11:03:30.265Z,21.50
2018-06-23T11:08:33.575Z,21.43
2018-06-23T11:11:04.329Z,21.37
2018-06-23T11:13:35.955Z,21.41
2018-06-23T11:16:04.783Z,21.42
2018-06-23T11:18:35.152Z,21.39
2018-06-23T11:21:04.229Z,21.33
2018-06-23T11:23:32.771Z,21.28
2018-06-23T11:26:01.859Z,21.22
2018-06-23T11:28:31.106Z,21.15
2018-06-23T11:31:00.160Z,21.57
2018-06-23T11:33:28.978Z,21.53
2018-06-23T11:35:57.662Z,21.78
2018-06-23T11:38:26.247Z,20.76
2018-06-23T11:40:55.286Z,21.61
2018-06-23T11:43:23.856Z,21.81
2018-06-23T11:45:52.897Z,22.20
2018-06-23T11:48:23.804Z,22.01
2018-06-23T11:50:53.090Z,21.69
2018-06-23T11:53:21.596Z,22.08
2018-06-23T11:55:50.380Z,22.27
2018-06-23T11:58:19.680Z,22.05
2018-06-23T12:00:49.033Z,21.19
2018-06-23T12:03:18.368Z,21.38
2018-06-23T12:05:47.311Z,21.82
2018-06-23T12:08:17.569Z,21.82
2018-06-23T12:10:46.108Z,21.86
2018-06-23T12:13:14.738Z,22.03
2018-06-23T12:15:43.322Z,20.60
2018-06-23T12:18:11.940Z,21.30
2018-06-23T12:20:40.999Z,21.80
2018-06-23T12:23:09.512Z,21.75
2018-06-23T12:25:39.007Z,21.81
2018-06-23T12:28:08.390Z,21.67
2018-06-23T12:30:37.514Z,21.73
2018-06-23T12:33:06.241Z,22.00
2018-06-23T12:35:34.810Z,21.63
2018-06-23T12:38:03.405Z,21.82
2018-06-23T12:40:31.998Z,22.13
2018-06-23T12:43:01.203Z,21.83
2018-06-23T12:45:30.122Z,22.19
2018-06-23T12:47:58.699Z,22.22
2018-06-23T12:50:27.611Z,22.37
2018-06-23T12:52:56.173Z,22.92
2018-06-23T12:55:25.306Z,22.15
2018-06-23T12:57:53.822Z,22.85
2018-06-23T13:00:23.776Z,24.49
2018-06-23T13:02:53.025Z,25.70
2018-06-23T13:05:21.534Z,26.61
2018-06-23T13:07:51.079Z,28.09
2018-06-23T13:10:20.648Z,29.07
2018-06-23T13:12:49.178Z,28.78
2018-06-23T13:15:19.964Z,29.03
2018-06-23T13:17:48.471Z,29.12
2018-06-23T13:20:18.210Z,28.79
2018-06-23T13:22:47.809Z,27.05
2018-06-23T13:25:16.365Z,27.37
2018-06-23T13:27:44.982Z,28.30
2018-06-23T13:30:13.517Z,28.65
2018-06-23T13:32:45.029Z,29.18
2018-06-23T13:35:14.304Z,28.28
2018-06-23T13:37:43.021Z,29.26
2018-06-23T13:40:11.581Z,29.76
2018-06-23T13:42:40.503Z,29.70
2018-06-23T13:45:09.646Z,29.51
2018-06-23T13:47:38.430Z,30.50
2018-06-23T13:50:07.005Z,29.81
2018-06-23T13:52:35.611Z,29.17
2018-06-23T13:55:04.145Z,28.72
2018-06-23T13:57:32.733Z,28.94
2018-06-23T14:00:02.648Z,29.99
2018-06-23T14:02:31.317Z,29.71
2018-06-23T14:05:00.423Z,30.14
2018-06-23T14:07:29.020Z,30.34
2018-06-23T14:09:57.724Z,29.55
2018-06-23T14:12:26.398Z,29.53
2018-06-23T14:14:55.426Z,28.76
2018-06-23T14:17:24.037Z,29.08
2018-06-23T14:19:55.265Z,27.92
2018-06-23T14:22:23.715Z,27.32
2018-06-23T14:24:52.219Z,27.83
2018-06-23T14:27:21.199Z,27.72
2018-06-23T14:29:50.084Z,28.10
2018-06-23T14:32:19.285Z,27.28
2018-06-23T14:34:47.646Z,27.65
2018-06-23T14:37:17.084Z,27.36
2018-06-23T14:39:45.771Z,26.45
2018-06-23T14:42:14.613Z,26.02
2018-06-23T14:44:44.685Z,26.56
2018-06-23T14:47:13.626Z,26.65
2018-06-23T14:49:48.195Z,26.66
2018-06-23T14:52:17.116Z,26.75
2018-06-23T14:54:49.916Z,26.70
2018-06-23T14:57:19.918Z,26.03
2018-06-23T14:59:48.661Z,26.32
2018-06-23T15:02:19.293Z,25.92
2018-06-23T15:04:50.067Z,26.21
2018-06-23T15:07:20.319Z,26.32
2018-06-23T15:10:00.913Z,25.79
2018-06-23T15:12:41.351Z,25.57
2018-06-23T15:15:09.953Z,25.54
2018-06-23T15:17:40.927Z,25.35
2018-06-23T15:20:09.687Z,24.91
2018-06-23T15:22:38.319Z,24.84
2018-06-23T15:25:07.641Z,24.71
2018-06-23T15:27:36.162Z,24.70
2018-06-23T15:30:04.894Z,24.30
2018-06-23T15:32:33.552Z,24.55
2018-06-23T15:35:02.050Z,24.00
2018-06-23T15:37:30.653Z,24.37
2018-06-23T15:39:59.876Z,24.48
2018-06-23T15:42:28.513Z,23.93
2018-06-23T15:44:57.099Z,23.84
2018-06-23T15:47:26.040Z,23.66
2018-06-23T15:49:54.573Z,23.71
2018-06-23T15:52:23.055Z,23.96
2018-06-23T15:54:51.640Z,23.88
2018-06-23T15:57:20.131Z,23.79
2018-06-23T15:59:48.807Z,23.79
2018-06-23T16:02:17.813Z,23.93
2018-06-23T16:04:46.545Z,23.74
2018-06-23T16:07:15.160Z,23.59
2018-06-23T16:09:43.771Z,23.38
2018-06-23T16:12:12.624Z,23.42
2018-06-23T16:14:41.136Z,23.24
2018-06-23T16:17:09.740Z,23.58
2018-06-23T16:19:38.321Z,23.53
2018-06-23T16:22:06.859Z,23.40
2018-06-23T16:24:36.574Z,23.52
2018-06-23T16:27:05.901Z,23.41
2018-06-23T16:29:34.846Z,23.33
2018-06-23T16:32:03.371Z,23.39
2018-06-23T16:34:32.038Z,23.19
2018-06-23T16:37:01.375Z,23.14
2018-06-23T16:39:29.923Z,23.21
2018-06-23T16:41:58.717Z,23.44
2018-06-23T16:44:28.050Z,23.19
2018-06-23T16:46:57.017Z,23.24
2018-06-23T16:49:26.008Z,22.79
2018-06-23T16:51:54.709Z,22.53
2018-06-23T16:54:23.659Z,22.41
2018-06-23T16:56:52.853Z,22.39
2018-06-23T16:59:21.486Z,22.45
2018-06-23T17:01:50.454Z,22.61
2018-06-23T17:04:19.185Z,22.68
2018-06-23T17:06:47.741Z,22.50
2018-06-23T17:09:17.788Z,22.01
2018-06-23T17:11:46.377Z,22.21
2018-06-23T17:14:17.388Z,22.36
2018-06-23T17:16:48.222Z,22.34
2018-06-23T17:19:19.118Z,21.91
2018-06-23T17:21:48.645Z,21.88
2018-06-23T17:24:18.555Z,21.07
2018-06-23T17:26:47.141Z,21.79
2018-06-23T17:29:18.130Z,21.69
2018-06-23T17:31:46.767Z,21.61
2018-06-23T17:34:15.382Z,21.90
2018-06-23T17:36:44.586Z,22.00
2018-06-23T17:39:13.138Z,22.04
2018-06-23T17:41:42.375Z,21.86
2018-06-23T17:44:11.522Z,21.80
2018-06-23T17:46:40.900Z,22.06
2018-06-23T17:49:09.497Z,22.01
2018-06-23T17:51:38.073Z,21.88
2018-06-23T17:54:06.693Z,21.95
2018-06-23T17:56:35.285Z,21.95
2018-06-23T17:59:03.921Z,21.92
2018-06-23T18:01:32.822Z,21.69
2018-06-23T18:04:02.162Z,21.61
2018-06-23T18:06:30.842Z,21.69
2018-06-23T18:08:59.535Z,21.39
2018-06-23T18:11:28.200Z,21.38
2018-06-23T18:13:56.711Z,21.62
2018-06-23T18:16:25.176Z,21.77
2018-06-23T18:18:54.140Z,21.58
2018-06-23T18:21:23.270Z,21.04
2018-06-23T18:23:52.374Z,21.02
2018-06-23T18:26:21.483Z,21.15
2018-06-23T18:28:50.557Z,20.98
2018-06-23T18:31:19.329Z,21.16
2018-06-23T18:33:47.888Z,21.16
2018-06-23T18:37:57.686Z,21.22
2018-06-23T18:40:26.440Z,21.14
2018-06-23T18:42:55.104Z,20.87
2018-06-23T18:45:24.433Z,21.10
2018-06-23T18:47:53.207Z,21.08
2018-06-23T18:50:22.110Z,20.63
2018-06-23T18:52:50.852Z,20.78
2018-06-23T18:55:19.871Z,20.75
2018-06-23T18:57:48.680Z,20.68
2018-06-23T19:00:18.265Z,20.75
2018-06-23T19:02:46.816Z,20.63
2018-06-23T19:05:15.451Z,20.35
2018-06-23T19:07:44.457Z,20.17
2018-06-23T19:10:13.812Z,20.05
2018-06-23T19:12:42.480Z,19.94
2018-06-23T19:15:11.584Z,20.00
2018-06-23T19:17:40.507Z,19.94
2018-06-23T19:20:10.237Z,20.03
2018-06-23T19:22:38.957Z,20.08
2018-06-23T19:25:08.007Z,20.13
2018-06-23T19:27:36.852Z,20.05
2018-06-23T19:30:06.717Z,19.70
2018-06-23T19:32:37.501Z,19.77
2018-06-23T19:35:06.402Z,19.83
2018-06-23T19:37:35.747Z,19.82
2018-06-23T19:40:04.548Z,19.90
2018-06-23T19:42:33.183Z,19.76
2018-06-23T19:45:02.126Z,19.61
2018-06-23T19:47:31.349Z,19.73
2018-06-23T19:50:04.804Z,19.73
2018-06-23T19:52:33.510Z,19.78
2018-06-23T19:55:02.039Z,19.81
2018-06-23T19:57:31.648Z,19.65
2018-06-23T20:00:00.184Z,19.64
2018-06-23T20:02:28.676Z,19.21
2018-06-23T20:04:57.623Z,19.29
2018-06-23T20:07:26.222Z,19.12
2018-06-23T20:09:54.944Z,19.18
2018-06-23T20:12:23.840Z,19.23
2018-06-23T20:14:52.467Z,19.20
2018-06-23T20:17:21.114Z,19.21
2018-06-23T20:19:49.688Z,18.95
2018-06-23T20:22:19.027Z,19.16
2018-06-23T20:24:48.245Z,18.97
2018-06-23T20:27:16.760Z,18.96
2018-06-23T20:29:45.537Z,19.04
2018-06-23T20:32:14.159Z,18.87
2018-06-23T20:34:42.973Z,18.67
2018-06-23T20:37:11.464Z,18.75
2018-06-23T20:39:40.090Z,18.61
2018-06-23T20:42:08.612Z,18.42
2018-06-23T20:44:37.215Z,18.48
2018-06-23T20:47:06.199Z,18.67
2018-06-23T20:49:35.418Z,18.82
2018-06-23T20:52:03.958Z,18.88
2018-06-23T20:54:33.225Z,18.85
2018-06-23T20:57:01.893Z,18.77
2018-06-23T20:59:30.494Z,18.31
2018-06-23T21:01:59.220Z,18.62
2018-06-23T21:04:27.834Z,18.67
2018-06-23T21:06:56.454Z,18.63
2018-06-23T21:09:25.113Z,18.58
2018-06-23T21:11:53.715Z,18.69
2018-06-23T21:14:22.908Z,18.42
2018-06-23T21:16:51.645Z,18.25
2018-06-23T21:19:22.827Z,18.28
2018-06-23T21:21:51.431Z,18.11
2018-06-23T21:24:20.800Z,18.25
2018-06-23T21:26:49.824Z,18.31
2018-06-23T21:29:18.348Z,17.92
2018-06-23T21:31:48.684Z,18.03
2018-06-23T21:34:17.339Z,18.17
2018-06-23T21:36:46.015Z,18.23
2018-06-23T21:39:14.569Z,18.09
2018-06-23T21:41:43.721Z,18.23
2018-06-23T21:44:12.438Z,18.22
2018-06-23T21:46:41.229Z,18.33
2018-06-23T21:49:10.457Z,18.34
2018-06-23T21:51:38.967Z,18.34
2018-06-23T21:54:07.804Z,18.30
2018-06-23T21:56:36.458Z,18.23
2018-06-23T21:59:05.168Z,18.17
2018-06-23T22:01:33.949Z,18.06
2018-06-23T22:04:02.462Z,18.02
2018-06-23T22:06:31.692Z,18.00
2018-06-23T22:09:00.582Z,18.03
2018-06-23T22:11:29.431Z,18.07
2018-06-23T22:13:58.423Z,18.08
2018-06-23T22:16:26.938Z,18.05
2018-06-23T22:18:55.503Z,18.02
2018-06-23T22:21:24.327Z,17.98
2018-06-23T22:23:54.014Z,18.00
2018-06-23T22:26:23.310Z,17.99
2018-06-23T22:28:53.635Z,17.97
2018-06-23T22:31:23.130Z,17.97
2018-06-23T22:33:51.653Z,17.85
2018-06-23T22:36:21.266Z,17.83
2018-06-23T22:38:49.835Z,17.81
2018-06-23T22:41:18.357Z,17.84
2018-06-23T22:43:46.987Z,17.90
2018-06-23T22:46:16.108Z,17.91
2018-06-23T22:48:44.702Z,17.88
2018-06-23T22:51:13.550Z,17.93
2018-06-23T22:53:42.034Z,17.94
2018-06-23T22:56:10.892Z,17.93
2018-06-23T22:58:39.411Z,17.93
2018-06-23T23:01:08.200Z,17.90
2018-06-23T23:03:36.689Z,17.90
2018-06-23T23:06:05.225Z,17.80
2018-06-23T23:08:33.856Z,17.77
2018-06-23T23:11:02.714Z,17.70
2018-06-23T23:13:31.954Z,17.64
2018-06-23T23:16:00.624Z,17.56
2018-06-23T23:18:29.291Z,17.57
2018-06-23T23:20:57.963Z,17.51
2018-06-23T23:23:26.528Z,17.48
2018-06-23T23:25:59.433Z,17.41
2018-06-23T23:28:28.846Z,17.41
2018-06-23T23:30:58.219Z,17.27
2018-06-23T23:33:26.780Z,17.27
2018-06-23T23:35:55.369Z,17.25
2018-06-23T23:38:23.940Z,17.22
2018-06-23T23:40:53.022Z,17.09
2018-06-23T23:43:21.540Z,17.11
2018-06-23T23:45:51.000Z,17.04
2018-06-23T23:48:19.503Z,17.00
2018-06-23T23:50:48.106Z,17.02
2018-06-23T23:53:16.564Z,17.05
2018-06-23T23:55:45.524Z,17.00
2018-06-23T23:58:14.381Z,16.92
